sensor_id;sensor_type;location;lat;lon;timestamp;P1;durP1;ratioP1;P2;durP2;ratioP2
7432;SDS011;32233;49.500;7.764;2023-11-18T00:01:32;32.87;;;19.53;;
7432;SDS011;32233;49.500;7.764;2023-11-18T00:04:00;29.17;;;17.83;;
7432;SDS011;32233;49.500;7.764;2023-11-18T00:06:26;30.77;;;17.80;;
7432;SDS011;32233;49.500;7.764;2023-11-18T00:08:54;30.07;;;17.97;;
7432;SDS011;32233;49.500;7.764;2023-11-18T00:11:21;31.03;;;17.97;;
7432;SDS011;32233;49.500;7.764;2023-11-18T00:13:47;33.90;;;19.27;;
7432;SDS011;32233;49.500;7.764;2023-11-18T00:16:14;36.03;;;19.63;;
7432;SDS011;32233;49.500;7.764;2023-11-18T00:18:42;32.67;;;19.20;;
7432;SDS011;32233;49.500;7.764;2023-11-18T00:21:09;36.20;;;20.73;;
7432;SDS011;32233;49.500;7.764;2023-11-18T00:23:36;33.60;;;19.73;;
7432;SDS011;32233;49.500;7.764;2023-11-18T00:26:03;37.27;;;20.37;;
7432;SDS011;32233;49.500;7.764;2023-11-18T00:28:30;38.83;;;21.40;;
7432;SDS011;32233;49.500;7.764;2023-11-18T00:30:56;38.07;;;20.90;;
7432;SDS011;32233;49.500;7.764;2023-11-18T00:33:23;36.27;;;21.33;;
7432;SDS011;32233;49.500;7.764;2023-11-18T00:35:49;37.87;;;20.93;;
7432;SDS011;32233;49.500;7.764;2023-11-18T00:38:16;34.10;;;20.57;;
7432;SDS011;32233;49.500;7.764;2023-11-18T00:40:44;32.97;;;20.87;;
7432;SDS011;32233;49.500;7.764;2023-11-18T00:43:10;30.00;;;18.70;;
7432;SDS011;32233;49.500;7.764;2023-11-18T00:45:37;38.83;;;20.27;;
7432;SDS011;32233;49.500;7.764;2023-11-18T00:48:03;35.27;;;20.20;;
7432;SDS011;32233;49.500;7.764;2023-11-18T00:50:31;31.30;;;19.63;;
7432;SDS011;32233;49.500;7.764;2023-11-18T00:52:59;36.97;;;19.87;;
7432;SDS011;32233;49.500;7.764;2023-11-18T00:55:26;31.57;;;20.17;;
7432;SDS011;32233;49.500;7.764;2023-11-18T00:57:53;38.47;;;22.17;;
7432;SDS011;32233;49.500;7.764;2023-11-18T01:00:19;36.43;;;21.67;;
7432;SDS011;32233;49.500;7.764;2023-11-18T01:02:48;41.07;;;22.30;;
7432;SDS011;32233;49.500;7.764;2023-11-18T01:05:16;38.63;;;21.97;;
7432;SDS011;32233;49.500;7.764;2023-11-18T01:07:43;41.03;;;21.73;;
7432;SDS011;32233;49.500;7.764;2023-11-18T01:10:10;42.03;;;23.23;;
7432;SDS011;32233;49.500;7.764;2023-11-18T01:12:37;41.20;;;22.80;;
7432;SDS011;32233;49.500;7.764;2023-11-18T01:15:04;36.83;;;22.53;;
7432;SDS011;32233;49.500;7.764;2023-11-18T01:17:32;38.60;;;22.93;;
7432;SDS011;32233;49.500;7.764;2023-11-18T01:19:59;42.07;;;23.83;;
7432;SDS011;32233;49.500;7.764;2023-11-18T01:22:29;45.97;;;24.37;;
7432;SDS011;32233;49.500;7.764;2023-11-18T01:24:55;47.43;;;24.07;;
7432;SDS011;32233;49.500;7.764;2023-11-18T01:27:25;47.27;;;24.10;;
7432;SDS011;32233;49.500;7.764;2023-11-18T01:29:52;39.27;;;22.37;;
7432;SDS011;32233;49.500;7.764;2023-11-18T01:32:18;40.80;;;23.33;;
7432;SDS011;32233;49.500;7.764;2023-11-18T01:34:45;42.37;;;24.20;;
7432;SDS011;32233;49.500;7.764;2023-11-18T01:37:16;36.97;;;22.37;;
7432;SDS011;32233;49.500;7.764;2023-11-18T01:39:43;42.13;;;22.57;;
7432;SDS011;32233;49.500;7.764;2023-11-18T01:42:11;36.83;;;20.50;;
7432;SDS011;32233;49.500;7.764;2023-11-18T01:44:38;37.13;;;20.07;;
7432;SDS011;32233;49.500;7.764;2023-11-18T01:47:04;37.10;;;20.73;;
7432;SDS011;32233;49.500;7.764;2023-11-18T01:49:33;32.93;;;19.33;;
7432;SDS011;32233;49.500;7.764;2023-11-18T01:52:03;31.13;;;19.30;;
7432;SDS011;32233;49.500;7.764;2023-11-18T01:54:30;36.63;;;20.90;;
7432;SDS011;32233;49.500;7.764;2023-11-18T01:56:58;31.27;;;18.43;;
7432;SDS011;32233;49.500;7.764;2023-11-18T01:59:26;35.80;;;18.80;;
7432;SDS011;32233;49.500;7.764;2023-11-18T02:01:56;33.27;;;19.63;;
7432;SDS011;32233;49.500;7.764;2023-11-18T02:04:26;37.07;;;20.33;;
7432;SDS011;32233;49.500;7.764;2023-11-18T02:06:54;34.07;;;19.63;;
7432;SDS011;32233;49.500;7.764;2023-11-18T02:09:22;36.13;;;20.47;;
7432;SDS011;32233;49.500;7.764;2023-11-18T02:14:38;40.07;;;21.80;;
7432;SDS011;32233;49.500;7.764;2023-11-18T02:17:05;38.33;;;21.63;;
7432;SDS011;32233;49.500;7.764;2023-11-18T02:19:37;36.87;;;20.83;;
7432;SDS011;32233;49.500;7.764;2023-11-18T02:22:06;35.80;;;19.73;;
7432;SDS011;32233;49.500;7.764;2023-11-18T02:24:35;36.77;;;19.73;;
7432;SDS011;32233;49.500;7.764;2023-11-18T02:27:07;40.03;;;21.00;;
7432;SDS011;32233;49.500;7.764;2023-11-18T02:29:34;38.83;;;21.30;;
7432;SDS011;32233;49.500;7.764;2023-11-18T02:34:57;34.57;;;19.93;;
7432;SDS011;32233;49.500;7.764;2023-11-18T02:37:37;36.33;;;19.67;;
7432;SDS011;32233;49.500;7.764;2023-11-18T02:40:06;31.70;;;16.93;;
7432;SDS011;32233;49.500;7.764;2023-11-18T02:42:38;29.53;;;16.93;;
7432;SDS011;32233;49.500;7.764;2023-11-18T02:45:06;29.67;;;17.50;;
7432;SDS011;32233;49.500;7.764;2023-11-18T02:47:33;26.87;;;15.87;;
7432;SDS011;32233;49.500;7.764;2023-11-18T02:50:00;29.27;;;16.77;;
7432;SDS011;32233;49.500;7.764;2023-11-18T02:52:31;25.50;;;15.63;;
7432;SDS011;32233;49.500;7.764;2023-11-18T02:54:59;24.93;;;14.57;;
7432;SDS011;32233;49.500;7.764;2023-11-18T02:57:26;26.30;;;15.77;;
7432;SDS011;32233;49.500;7.764;2023-11-18T02:59:52;22.53;;;14.33;;
7432;SDS011;32233;49.500;7.764;2023-11-18T03:02:19;25.47;;;14.80;;
7432;SDS011;32233;49.500;7.764;2023-11-18T03:04:47;22.17;;;13.03;;
7432;SDS011;32233;49.500;7.764;2023-11-18T03:07:14;23.57;;;14.27;;
7432;SDS011;32233;49.500;7.764;2023-11-18T03:09:40;23.37;;;13.27;;
7432;SDS011;32233;49.500;7.764;2023-11-18T03:12:07;21.93;;;13.20;;
7432;SDS011;32233;49.500;7.764;2023-11-18T03:14:34;17.30;;;11.00;;
7432;SDS011;32233;49.500;7.764;2023-11-18T03:17:01;19.10;;;11.23;;
7432;SDS011;32233;49.500;7.764;2023-11-18T03:19:28;16.53;;;10.57;;
7432;SDS011;32233;49.500;7.764;2023-11-18T03:21:55;15.77;;;10.47;;
7432;SDS011;32233;49.500;7.764;2023-11-18T03:24:22;17.90;;;11.10;;
7432;SDS011;32233;49.500;7.764;2023-11-18T03:26:49;12.53;;;9.17;;
7432;SDS011;32233;49.500;7.764;2023-11-18T03:29:15;14.53;;;10.13;;
7432;SDS011;32233;49.500;7.764;2023-11-18T03:31:42;16.27;;;9.40;;
7432;SDS011;32233;49.500;7.764;2023-11-18T03:34:11;16.17;;;9.90;;
7432;SDS011;32233;49.500;7.764;2023-11-18T03:36:37;19.50;;;11.23;;
7432;SDS011;32233;49.500;7.764;2023-11-18T03:39:04;15.23;;;10.03;;
7432;SDS011;32233;49.500;7.764;2023-11-18T03:41:30;17.13;;;9.83;;
7432;SDS011;32233;49.500;7.764;2023-11-18T03:43:57;18.33;;;10.97;;
7432;SDS011;32233;49.500;7.764;2023-11-18T03:46:24;17.13;;;10.50;;
7432;SDS011;32233;49.500;7.764;2023-11-18T03:48:51;20.60;;;10.90;;
7432;SDS011;32233;49.500;7.764;2023-11-18T03:51:17;15.93;;;10.10;;
7432;SDS011;32233;49.500;7.764;2023-11-18T03:53:44;19.27;;;11.47;;
7432;SDS011;32233;49.500;7.764;2023-11-18T03:56:11;15.63;;;10.00;;
7432;SDS011;32233;49.500;7.764;2023-11-18T03:58:44;16.60;;;10.47;;
7432;SDS011;32233;49.500;7.764;2023-11-18T04:01:23;17.60;;;10.43;;
7432;SDS011;32233;49.500;7.764;2023-11-18T04:03:53;21.60;;;11.70;;
7432;SDS011;32233;49.500;7.764;2023-11-18T04:06:20;18.10;;;10.27;;
7432;SDS011;32233;49.500;7.764;2023-11-18T04:08:48;17.93;;;10.50;;
7432;SDS011;32233;49.500;7.764;2023-11-18T04:11:15;14.83;;;10.17;;
7432;SDS011;32233;49.500;7.764;2023-11-18T04:13:42;16.57;;;9.37;;
7432;SDS011;32233;49.500;7.764;2023-11-18T04:16:12;17.20;;;10.57;;
7432;SDS011;32233;49.500;7.764;2023-11-18T04:18:42;16.77;;;9.90;;
7432;SDS011;32233;49.500;7.764;2023-11-18T04:21:10;14.50;;;8.87;;
7432;SDS011;32233;49.500;7.764;2023-11-18T04:23:37;15.67;;;9.43;;
7432;SDS011;32233;49.500;7.764;2023-11-18T04:26:05;14.07;;;8.90;;
7432;SDS011;32233;49.500;7.764;2023-11-18T04:28:34;12.80;;;8.57;;
7432;SDS011;32233;49.500;7.764;2023-11-18T04:31:02;13.07;;;7.97;;
7432;SDS011;32233;49.500;7.764;2023-11-18T04:33:29;14.30;;;8.43;;
7432;SDS011;32233;49.500;7.764;2023-11-18T04:35:56;13.17;;;8.60;;
7432;SDS011;32233;49.500;7.764;2023-11-18T04:38:26;14.50;;;8.57;;
7432;SDS011;32233;49.500;7.764;2023-11-18T04:40:53;14.73;;;8.23;;
7432;SDS011;32233;49.500;7.764;2023-11-18T04:43:21;13.43;;;8.07;;
7432;SDS011;32233;49.500;7.764;2023-11-18T04:46:06;12.97;;;8.27;;
7432;SDS011;32233;49.500;7.764;2023-11-18T04:48:33;14.17;;;7.93;;
7432;SDS011;32233;49.500;7.764;2023-11-18T04:51:04;14.23;;;8.27;;
7432;SDS011;32233;49.500;7.764;2023-11-18T04:53:32;12.23;;;7.27;;
7432;SDS011;32233;49.500;7.764;2023-11-18T04:55:58;13.57;;;7.50;;
7432;SDS011;32233;49.500;7.764;2023-11-18T04:58:25;14.03;;;7.23;;
7432;SDS011;32233;49.500;7.764;2023-11-18T05:00:51;11.23;;;7.17;;
7432;SDS011;32233;49.500;7.764;2023-11-18T05:03:18;12.07;;;7.20;;
7432;SDS011;32233;49.500;7.764;2023-11-18T05:05:45;15.33;;;6.60;;
7432;SDS011;32233;49.500;7.764;2023-11-18T05:08:18;14.93;;;7.20;;
7432;SDS011;32233;49.500;7.764;2023-11-18T05:10:49;16.50;;;7.57;;
7432;SDS011;32233;49.500;7.764;2023-11-18T05:13:17;12.37;;;7.10;;
7432;SDS011;32233;49.500;7.764;2023-11-18T05:15:46;12.67;;;7.27;;
7432;SDS011;32233;49.500;7.764;2023-11-18T05:18:13;12.30;;;6.83;;
7432;SDS011;32233;49.500;7.764;2023-11-18T05:20:44;11.30;;;6.90;;
7432;SDS011;32233;49.500;7.764;2023-11-18T05:23:11;14.10;;;7.53;;
7432;SDS011;32233;49.500;7.764;2023-11-18T05:25:42;14.37;;;7.30;;
7432;SDS011;32233;49.500;7.764;2023-11-18T05:28:12;13.90;;;7.53;;
7432;SDS011;32233;49.500;7.764;2023-11-18T05:30:40;11.50;;;6.33;;
7432;SDS011;32233;49.500;7.764;2023-11-18T05:33:09;15.83;;;7.37;;
7432;SDS011;32233;49.500;7.764;2023-11-18T05:35:41;16.50;;;7.37;;
7432;SDS011;32233;49.500;7.764;2023-11-18T05:38:18;14.40;;;7.77;;
7432;SDS011;32233;49.500;7.764;2023-11-18T05:40:48;15.53;;;7.23;;
7432;SDS011;32233;49.500;7.764;2023-11-18T05:43:24;15.50;;;7.90;;
7432;SDS011;32233;49.500;7.764;2023-11-18T05:45:55;15.73;;;8.27;;
7432;SDS011;32233;49.500;7.764;2023-11-18T05:48:42;16.30;;;8.03;;
7432;SDS011;32233;49.500;7.764;2023-11-18T05:51:10;16.93;;;9.07;;
7432;SDS011;32233;49.500;7.764;2023-11-18T05:53:43;18.77;;;8.93;;
7432;SDS011;32233;49.500;7.764;2023-11-18T05:56:13;18.23;;;8.80;;
7432;SDS011;32233;49.500;7.764;2023-11-18T05:58:40;16.53;;;8.30;;
7432;SDS011;32233;49.500;7.764;2023-11-18T06:01:07;19.77;;;8.77;;
7432;SDS011;32233;49.500;7.764;2023-11-18T06:03:34;13.83;;;7.50;;
7432;SDS011;32233;49.500;7.764;2023-11-18T06:06:09;16.63;;;8.03;;
7432;SDS011;32233;49.500;7.764;2023-11-18T06:08:37;14.67;;;8.17;;
7432;SDS011;32233;49.500;7.764;2023-11-18T06:11:09;15.27;;;7.67;;
7432;SDS011;32233;49.500;7.764;2023-11-18T06:13:44;16.07;;;8.13;;
7432;SDS011;32233;49.500;7.764;2023-11-18T06:16:18;15.30;;;7.60;;
7432;SDS011;32233;49.500;7.764;2023-11-18T06:18:54;17.37;;;8.57;;
7432;SDS011;32233;49.500;7.764;2023-11-18T06:21:25;17.27;;;8.70;;
7432;SDS011;32233;49.500;7.764;2023-11-18T06:23:57;19.37;;;9.10;;
7432;SDS011;32233;49.500;7.764;2023-11-18T06:26:24;18.20;;;9.43;;
7432;SDS011;32233;49.500;7.764;2023-11-18T06:28:55;16.40;;;8.90;;
7432;SDS011;32233;49.500;7.764;2023-11-18T06:31:22;17.07;;;8.70;;
7432;SDS011;32233;49.500;7.764;2023-11-18T06:33:50;15.93;;;8.73;;
7432;SDS011;32233;49.500;7.764;2023-11-18T06:36:18;18.67;;;8.90;;
7432;SDS011;32233;49.500;7.764;2023-11-18T06:38:48;23.97;;;9.50;;
7432;SDS011;32233;49.500;7.764;2023-11-18T06:41:17;16.73;;;8.80;;
7432;SDS011;32233;49.500;7.764;2023-11-18T06:43:45;17.70;;;8.13;;
7432;SDS011;32233;49.500;7.764;2023-11-18T06:46:24;20.53;;;8.97;;
7432;SDS011;32233;49.500;7.764;2023-11-18T06:48:51;15.77;;;8.60;;
7432;SDS011;32233;49.500;7.764;2023-11-18T06:51:21;20.33;;;8.97;;
7432;SDS011;32233;49.500;7.764;2023-11-18T06:53:51;18.43;;;8.97;;
7432;SDS011;32233;49.500;7.764;2023-11-18T06:56:18;20.53;;;10.20;;
7432;SDS011;32233;49.500;7.764;2023-11-18T06:58:45;20.73;;;10.27;;
7432;SDS011;32233;49.500;7.764;2023-11-18T07:01:14;19.20;;;10.20;;
7432;SDS011;32233;49.500;7.764;2023-11-18T07:03:42;18.53;;;8.87;;
7432;SDS011;32233;49.500;7.764;2023-11-18T07:06:10;16.73;;;8.70;;
7432;SDS011;32233;49.500;7.764;2023-11-18T07:08:37;14.33;;;8.07;;
7432;SDS011;32233;49.500;7.764;2023-11-18T07:11:05;12.30;;;7.43;;
7432;SDS011;32233;49.500;7.764;2023-11-18T07:13:32;16.00;;;8.40;;
7432;SDS011;32233;49.500;7.764;2023-11-18T07:16:00;17.33;;;8.80;;
7432;SDS011;32233;49.500;7.764;2023-11-18T07:18:30;20.63;;;9.70;;
7432;SDS011;32233;49.500;7.764;2023-11-18T07:21:01;21.13;;;10.40;;
7432;SDS011;32233;49.500;7.764;2023-11-18T07:23:30;22.07;;;11.73;;
7432;SDS011;32233;49.500;7.764;2023-11-18T07:25:57;21.23;;;10.87;;
7432;SDS011;32233;49.500;7.764;2023-11-18T07:28:24;15.77;;;9.07;;
7432;SDS011;32233;49.500;7.764;2023-11-18T07:30:52;20.13;;;9.93;;
7432;SDS011;32233;49.500;7.764;2023-11-18T07:33:20;19.13;;;10.57;;
7432;SDS011;32233;49.500;7.764;2023-11-18T07:35:47;20.87;;;10.43;;
7432;SDS011;32233;49.500;7.764;2023-11-18T07:38:15;18.97;;;10.30;;
7432;SDS011;32233;49.500;7.764;2023-11-18T07:40:42;17.80;;;10.00;;
7432;SDS011;32233;49.500;7.764;2023-11-18T07:43:12;13.50;;;8.90;;
7432;SDS011;32233;49.500;7.764;2023-11-18T07:45:39;17.87;;;9.40;;
7432;SDS011;32233;49.500;7.764;2023-11-18T07:48:06;12.50;;;8.97;;
7432;SDS011;32233;49.500;7.764;2023-11-18T07:50:39;12.90;;;7.63;;
7432;SDS011;32233;49.500;7.764;2023-11-18T07:53:11;14.53;;;8.10;;
7432;SDS011;32233;49.500;7.764;2023-11-18T07:55:38;11.37;;;7.70;;
7432;SDS011;32233;49.500;7.764;2023-11-18T07:58:08;17.47;;;8.77;;
7432;SDS011;32233;49.500;7.764;2023-11-18T08:00:37;17.67;;;8.93;;
7432;SDS011;32233;49.500;7.764;2023-11-18T08:03:05;13.63;;;8.03;;
7432;SDS011;32233;49.500;7.764;2023-11-18T08:05:38;15.67;;;8.37;;
7432;SDS011;32233;49.500;7.764;2023-11-18T08:08:10;15.97;;;8.83;;
7432;SDS011;32233;49.500;7.764;2023-11-18T08:10:37;19.70;;;10.40;;
7432;SDS011;32233;49.500;7.764;2023-11-18T08:13:05;24.43;;;13.40;;
7432;SDS011;32233;49.500;7.764;2023-11-18T08:15:37;19.67;;;10.77;;
7432;SDS011;32233;49.500;7.764;2023-11-18T08:18:06;24.23;;;10.83;;
7432;SDS011;32233;49.500;7.764;2023-11-18T08:20:33;18.13;;;9.93;;
7432;SDS011;32233;49.500;7.764;2023-11-18T08:23:00;13.67;;;9.20;;
7432;SDS011;32233;49.500;7.764;2023-11-18T08:25:26;20.40;;;9.00;;
7432;SDS011;32233;49.500;7.764;2023-11-18T08:27:53;16.93;;;9.20;;
7432;SDS011;32233;49.500;7.764;2023-11-18T08:30:20;13.23;;;8.00;;
7432;SDS011;32233;49.500;7.764;2023-11-18T08:32:47;19.90;;;8.67;;
7432;SDS011;32233;49.500;7.764;2023-11-18T08:35:15;14.17;;;7.33;;
7432;SDS011;32233;49.500;7.764;2023-11-18T08:37:42;11.77;;;7.07;;
7432;SDS011;32233;49.500;7.764;2023-11-18T08:40:10;11.70;;;7.10;;
7432;SDS011;32233;49.500;7.764;2023-11-18T08:42:44;12.73;;;7.00;;
7432;SDS011;32233;49.500;7.764;2023-11-18T08:48:00;13.00;;;6.57;;
7432;SDS011;32233;49.500;7.764;2023-11-18T08:50:34;15.53;;;6.90;;
7432;SDS011;32233;49.500;7.764;2023-11-18T08:53:01;10.90;;;6.17;;
7432;SDS011;32233;49.500;7.764;2023-11-18T08:55:31;11.73;;;6.50;;
7432;SDS011;32233;49.500;7.764;2023-11-18T08:58:17;12.03;;;6.10;;
7432;SDS011;32233;49.500;7.764;2023-11-18T09:01:00;12.47;;;7.03;;
7432;SDS011;32233;49.500;7.764;2023-11-18T09:03:40;13.20;;;7.70;;
7432;SDS011;32233;49.500;7.764;2023-11-18T09:06:15;13.47;;;6.53;;
7432;SDS011;32233;49.500;7.764;2023-11-18T09:08:46;8.93;;;5.97;;
7432;SDS011;32233;49.500;7.764;2023-11-18T09:11:19;10.67;;;4.90;;
7432;SDS011;32233;49.500;7.764;2023-11-18T09:13:49;8.50;;;4.57;;
7432;SDS011;32233;49.500;7.764;2023-11-18T09:16:21;9.80;;;4.50;;
7432;SDS011;32233;49.500;7.764;2023-11-18T09:18:57;9.60;;;4.33;;
7432;SDS011;32233;49.500;7.764;2023-11-18T09:21:29;7.03;;;4.07;;
7432;SDS011;32233;49.500;7.764;2023-11-18T09:23:57;8.80;;;3.77;;
7432;SDS011;32233;49.500;7.764;2023-11-18T09:26:24;7.67;;;3.70;;
7432;SDS011;32233;49.500;7.764;2023-11-18T09:28:52;5.67;;;4.10;;
7432;SDS011;32233;49.500;7.764;2023-11-18T09:31:19;7.90;;;3.90;;
7432;SDS011;32233;49.500;7.764;2023-11-18T09:33:48;6.23;;;3.43;;
7432;SDS011;32233;49.500;7.764;2023-11-18T09:36:23;7.07;;;3.77;;
7432;SDS011;32233;49.500;7.764;2023-11-18T09:38:50;4.70;;;2.90;;
7432;SDS011;32233;49.500;7.764;2023-11-18T09:41:17;7.40;;;3.13;;
7432;SDS011;32233;49.500;7.764;2023-11-18T09:43:44;7.63;;;3.10;;
7432;SDS011;32233;49.500;7.764;2023-11-18T09:48:47;5.30;;;2.40;;
7432;SDS011;32233;49.500;7.764;2023-11-18T09:51:22;7.93;;;2.40;;
7432;SDS011;32233;49.500;7.764;2023-11-18T09:53:50;3.17;;;2.23;;
7432;SDS011;32233;49.500;7.764;2023-11-18T09:56:26;3.40;;;2.30;;
7432;SDS011;32233;49.500;7.764;2023-11-18T09:59:05;7.10;;;2.40;;
7432;SDS011;32233;49.500;7.764;2023-11-18T10:01:43;4.57;;;2.20;;
7432;SDS011;32233;49.500;7.764;2023-11-18T10:04:14;7.47;;;2.00;;
7432;SDS011;32233;49.500;7.764;2023-11-18T10:06:44;2.70;;;1.70;;
7432;SDS011;32233;49.500;7.764;2023-11-18T10:09:13;3.73;;;1.70;;
7432;SDS011;32233;49.500;7.764;2023-11-18T10:11:44;5.33;;;1.90;;
7432;SDS011;32233;49.500;7.764;2023-11-18T10:14:14;2.07;;;1.87;;
7432;SDS011;32233;49.500;7.764;2023-11-18T10:16:45;3.97;;;1.80;;
7432;SDS011;32233;49.500;7.764;2023-11-18T10:19:15;5.33;;;1.67;;
7432;SDS011;32233;49.500;7.764;2023-11-18T10:21:44;6.77;;;1.93;;
7432;SDS011;32233;49.500;7.764;2023-11-18T10:24:15;4.87;;;1.43;;
7432;SDS011;32233;49.500;7.764;2023-11-18T10:26:53;6.13;;;1.80;;
7432;SDS011;32233;49.500;7.764;2023-11-18T10:29:24;3.47;;;1.87;;
7432;SDS011;32233;49.500;7.764;2023-11-18T10:33:00;5.73;;;1.60;;
7432;SDS011;32233;49.500;7.764;2023-11-18T11:12:20;3.90;;;2.10;;
7432;SDS011;32233;49.500;7.764;2023-11-18T11:37:07;3.37;;;1.80;;
7432;SDS011;32233;49.500;7.764;2023-11-18T11:39:37;4.60;;;1.67;;
7432;SDS011;32233;49.500;7.764;2023-11-18T11:42:04;3.40;;;1.77;;
7432;SDS011;32233;49.500;7.764;2023-11-18T11:44:35;5.50;;;2.00;;
7432;SDS011;32233;49.500;7.764;2023-11-18T11:47:08;3.33;;;1.83;;
7432;SDS011;32233;49.500;7.764;2023-11-18T11:49:45;1.70;;;1.40;;
7432;SDS011;32233;49.500;7.764;2023-11-18T11:52:22;4.27;;;1.63;;
7432;SDS011;32233;49.500;7.764;2023-11-18T11:57:32;2.27;;;1.40;;
7432;SDS011;32233;49.500;7.764;2023-11-18T12:00:08;3.57;;;1.43;;
7432;SDS011;32233;49.500;7.764;2023-11-18T12:02:48;5.03;;;1.50;;
7432;SDS011;32233;49.500;7.764;2023-11-18T12:05:16;2.27;;;1.60;;
7432;SDS011;32233;49.500;7.764;2023-11-18T12:07:52;6.33;;;1.80;;
7432;SDS011;32233;49.500;7.764;2023-11-18T12:10:31;5.97;;;1.83;;
7432;SDS011;32233;49.500;7.764;2023-11-18T12:13:08;3.90;;;1.63;;
7432;SDS011;32233;49.500;7.764;2023-11-18T12:15:52;3.67;;;2.00;;
7432;SDS011;32233;49.500;7.764;2023-11-18T12:18:46;5.53;;;2.30;;
7432;SDS011;32233;49.500;7.764;2023-11-18T12:21:53;5.70;;;2.33;;
7432;SDS011;32233;49.500;7.764;2023-11-18T12:24:20;4.60;;;2.20;;
7432;SDS011;32233;49.500;7.764;2023-11-18T12:26:48;8.73;;;2.27;;
7432;SDS011;32233;49.500;7.764;2023-11-18T12:29:34;4.67;;;2.17;;
7432;SDS011;32233;49.500;7.764;2023-11-18T12:32:10;5.40;;;2.27;;
7432;SDS011;32233;49.500;7.764;2023-11-18T12:34:52;3.03;;;2.30;;
7432;SDS011;32233;49.500;7.764;2023-11-18T12:40:06;6.00;;;2.60;;
7432;SDS011;32233;49.500;7.764;2023-11-18T12:43:02;2.50;;;2.30;;
7432;SDS011;32233;49.500;7.764;2023-11-18T12:48:13;5.10;;;2.67;;
7432;SDS011;32233;49.500;7.764;2023-11-18T12:50:41;4.20;;;1.80;;
7432;SDS011;32233;49.500;7.764;2023-11-18T12:53:10;6.53;;;1.60;;
7432;SDS011;32233;49.500;7.764;2023-11-18T12:55:39;2.90;;;1.70;;
7432;SDS011;32233;49.500;7.764;2023-11-18T12:58:06;3.90;;;1.90;;
7432;SDS011;32233;49.500;7.764;2023-11-18T13:00:33;3.90;;;1.93;;
7432;SDS011;32233;49.500;7.764;2023-11-18T13:03:02;8.33;;;2.17;;
7432;SDS011;32233;49.500;7.764;2023-11-18T13:05:29;3.80;;;1.87;;
7432;SDS011;32233;49.500;7.764;2023-11-18T13:07:56;5.43;;;2.33;;
7432;SDS011;32233;49.500;7.764;2023-11-18T13:10:28;7.23;;;1.63;;
7432;SDS011;32233;49.500;7.764;2023-11-18T13:12:54;4.87;;;1.70;;
7432;SDS011;32233;49.500;7.764;2023-11-18T13:15:22;2.10;;;1.57;;
7432;SDS011;32233;49.500;7.764;2023-11-18T13:18:01;4.73;;;1.93;;
7432;SDS011;32233;49.500;7.764;2023-11-18T13:20:33;4.83;;;1.90;;
7432;SDS011;32233;49.500;7.764;2023-11-18T13:23:09;4.83;;;1.87;;
7432;SDS011;32233;49.500;7.764;2023-11-18T13:25:36;4.27;;;1.70;;
7432;SDS011;32233;49.500;7.764;2023-11-18T13:28:07;4.70;;;2.50;;
7432;SDS011;32233;49.500;7.764;2023-11-18T13:30:37;5.93;;;2.10;;
7432;SDS011;32233;49.500;7.764;2023-11-18T13:33:06;3.73;;;1.60;;
7432;SDS011;32233;49.500;7.764;2023-11-18T13:35:34;3.67;;;1.60;;
7432;SDS011;32233;49.500;7.764;2023-11-18T13:38:02;3.40;;;1.77;;
7432;SDS011;32233;49.500;7.764;2023-11-18T13:40:46;2.80;;;1.90;;
7432;SDS011;32233;49.500;7.764;2023-11-18T13:43:14;5.87;;;2.17;;
7432;SDS011;32233;49.500;7.764;2023-11-18T13:45:41;3.00;;;1.50;;
7432;SDS011;32233;49.500;7.764;2023-11-18T13:48:11;4.00;;;1.90;;
7432;SDS011;32233;49.500;7.764;2023-11-18T13:50:40;4.17;;;1.70;;
7432;SDS011;32233;49.500;7.764;2023-11-18T13:53:07;2.73;;;1.37;;
7432;SDS011;32233;49.500;7.764;2023-11-18T13:55:34;5.27;;;1.30;;
7432;SDS011;32233;49.500;7.764;2023-11-18T13:58:02;3.33;;;1.40;;
7432;SDS011;32233;49.500;7.764;2023-11-18T14:00:31;2.13;;;1.53;;
7432;SDS011;32233;49.500;7.764;2023-11-18T14:02:58;5.27;;;1.50;;
7432;SDS011;32233;49.500;7.764;2023-11-18T14:05:32;3.80;;;1.80;;
7432;SDS011;32233;49.500;7.764;2023-11-18T14:08:00;2.03;;;1.60;;
7432;SDS011;32233;49.500;7.764;2023-11-18T14:10:26;5.23;;;1.80;;
7432;SDS011;32233;49.500;7.764;2023-11-18T14:13:01;3.87;;;1.80;;
7432;SDS011;32233;49.500;7.764;2023-11-18T14:15:29;5.40;;;1.97;;
7432;SDS011;32233;49.500;7.764;2023-11-18T14:17:56;2.23;;;1.53;;
7432;SDS011;32233;49.500;7.764;2023-11-18T14:20:24;3.53;;;1.73;;
7432;SDS011;32233;49.500;7.764;2023-11-18T14:22:51;6.53;;;1.93;;
7432;SDS011;32233;49.500;7.764;2023-11-18T14:25:21;2.77;;;1.80;;
7432;SDS011;32233;49.500;7.764;2023-11-18T14:27:50;2.50;;;1.73;;
7432;SDS011;32233;49.500;7.764;2023-11-18T14:30:17;3.80;;;1.80;;
7432;SDS011;32233;49.500;7.764;2023-11-18T14:32:45;2.00;;;1.40;;
7432;SDS011;32233;49.500;7.764;2023-11-18T14:35:13;4.83;;;1.80;;
7432;SDS011;32233;49.500;7.764;2023-11-18T14:37:44;5.07;;;2.20;;
7432;SDS011;32233;49.500;7.764;2023-11-18T14:40:12;5.60;;;2.10;;
7432;SDS011;32233;49.500;7.764;2023-11-18T14:42:43;3.07;;;1.90;;
7432;SDS011;32233;49.500;7.764;2023-11-18T14:45:12;4.43;;;2.67;;
7432;SDS011;32233;49.500;7.764;2023-11-18T14:47:43;3.43;;;1.97;;
7432;SDS011;32233;49.500;7.764;2023-11-18T14:50:12;6.03;;;1.40;;
7432;SDS011;32233;49.500;7.764;2023-11-18T14:52:47;2.37;;;1.70;;
7432;SDS011;32233;49.500;7.764;2023-11-18T14:55:17;4.63;;;2.10;;
7432;SDS011;32233;49.500;7.764;2023-11-18T14:57:44;4.30;;;1.67;;
7432;SDS011;32233;49.500;7.764;2023-11-18T15:00:11;4.93;;;1.77;;
7432;SDS011;32233;49.500;7.764;2023-11-18T15:02:48;2.40;;;1.83;;
7432;SDS011;32233;49.500;7.764;2023-11-18T15:05:18;5.17;;;2.13;;
7432;SDS011;32233;49.500;7.764;2023-11-18T15:07:51;4.73;;;1.67;;
7432;SDS011;32233;49.500;7.764;2023-11-18T15:10:23;5.30;;;2.00;;
7432;SDS011;32233;49.500;7.764;2023-11-18T15:12:52;3.43;;;1.63;;
7432;SDS011;32233;49.500;7.764;2023-11-18T15:15:25;4.90;;;1.80;;
7432;SDS011;32233;49.500;7.764;2023-11-18T15:18:09;3.27;;;1.50;;
7432;SDS011;32233;49.500;7.764;2023-11-18T15:20:40;5.03;;;1.73;;
7432;SDS011;32233;49.500;7.764;2023-11-18T15:23:13;5.70;;;2.57;;
7432;SDS011;32233;49.500;7.764;2023-11-18T15:25:44;7.23;;;3.27;;
7432;SDS011;32233;49.500;7.764;2023-11-18T15:28:11;9.03;;;3.30;;
7432;SDS011;32233;49.500;7.764;2023-11-18T15:30:38;6.87;;;2.40;;
7432;SDS011;32233;49.500;7.764;2023-11-18T15:33:06;3.03;;;2.13;;
7432;SDS011;32233;49.500;7.764;2023-11-18T15:35:36;6.50;;;3.23;;
7432;SDS011;32233;49.500;7.764;2023-11-18T15:38:11;4.83;;;1.60;;
7432;SDS011;32233;49.500;7.764;2023-11-18T15:40:44;4.83;;;2.20;;
7432;SDS011;32233;49.500;7.764;2023-11-18T15:43:10;7.73;;;2.13;;
7432;SDS011;32233;49.500;7.764;2023-11-18T15:45:38;5.23;;;2.43;;
7432;SDS011;32233;49.500;7.764;2023-11-18T15:48:05;5.77;;;2.43;;
7432;SDS011;32233;49.500;7.764;2023-11-18T15:50:33;4.87;;;2.17;;
7432;SDS011;32233;49.500;7.764;2023-11-18T15:53:04;4.43;;;2.00;;
7432;SDS011;32233;49.500;7.764;2023-11-18T15:55:34;4.20;;;2.00;;
7432;SDS011;32233;49.500;7.764;2023-11-18T15:58:03;3.33;;;2.03;;
7432;SDS011;32233;49.500;7.764;2023-11-18T16:00:30;5.93;;;1.80;;
7432;SDS011;32233;49.500;7.764;2023-11-18T16:02:58;2.47;;;1.83;;
7432;SDS011;32233;49.500;7.764;2023-11-18T16:05:28;3.87;;;1.77;;
7432;SDS011;32233;49.500;7.764;2023-11-18T16:08:01;4.27;;;2.07;;
7432;SDS011;32233;49.500;7.764;2023-11-18T16:10:28;4.73;;;1.97;;
7432;SDS011;32233;49.500;7.764;2023-11-18T16:12:56;3.90;;;2.27;;
7432;SDS011;32233;49.500;7.764;2023-11-18T16:15:25;4.70;;;2.10;;
7432;SDS011;32233;49.500;7.764;2023-11-18T16:17:53;37.70;;;23.60;;
7432;SDS011;32233;49.500;7.764;2023-11-18T16:20:21;8.90;;;4.57;;
7432;SDS011;32233;49.500;7.764;2023-11-18T16:22:49;6.80;;;4.20;;